sensor_id;sensor_type;location;lat;lon;timestamp;pressure;altitude;pressure_sealevel;temperature;humidity
15193;BME280;7697;51.630;7.484;2022-12-07T00:04:40;100887.22;;;5.90;100.00
15193;BME280;7697;51.630;7.484;2022-12-07T00:09:42;100882.59;;;5.92;100.00
15193;BME280;7697;51.630;7.484;2022-12-07T00:14:44;100874.88;;;5.91;100.00
15193;BME280;7697;51.630;7.484;2022-12-07T00:19:47;100880.94;;;5.91;100.00
15193;BME280;7697;51.630;7.484;2022-12-07T00:24:48;100870.44;;;5.91;100.00
15193;BME280;7697;51.630;7.484;2022-12-07T00:29:50;100866.19;;;5.90;100.00
15193;BME280;7697;51.630;7.484;2022-12-07T00:34:53;100867.81;;;5.91;100.00
15193;BME280;7697;51.630;7.484;2022-12-07T00:39:55;100858.94;;;5.92;100.00
15193;BME280;7697;51.630;7.484;2022-12-07T00:44:56;100869.44;;;5.92;100.00
15193;BME280;7697;51.630;7.484;2022-12-07T00:49:59;100859.09;;;5.91;100.00
15193;BME280;7697;51.630;7.484;2022-12-07T00:55:01;100859.91;;;5.91;100.00
15193;BME280;7697;51.630;7.484;2022-12-07T01:00:04;100847.44;;;5.93;100.00
15193;BME280;7697;51.630;7.484;2022-12-07T01:05:08;100847.44;;;5.93;100.00
15193;BME280;7697;51.630;7.484;2022-12-07T01:10:10;100832.03;;;5.90;100.00
15193;BME280;7697;51.630;7.484;2022-12-07T01:15:12;100840.19;;;5.87;100.00
15193;BME280;7697;51.630;7.484;2022-12-07T01:20:15;100848.78;;;5.89;100.00
15193;BME280;7697;51.630;7.484;2022-12-07T01:25:17;100852.38;;;5.88;100.00
15193;BME280;7697;51.630;7.484;2022-12-07T01:30:19;100853.03;;;5.90;100.00
15193;BME280;7697;51.630;7.484;2022-12-07T01:35:22;100849.59;;;5.90;100.00
15193;BME280;7697;51.630;7.484;2022-12-07T01:40:24;100856.66;;;5.89;100.00
15193;BME280;7697;51.630;7.484;2022-12-07T01:45:39;100847.78;;;5.90;100.00
15193;BME280;7697;51.630;7.484;2022-12-07T01:50:43;100855.00;;;5.88;100.00
15193;BME280;7697;51.630;7.484;2022-12-07T01:55:49;100847.25;;;5.87;100.00
15193;BME280;7697;51.630;7.484;2022-12-07T02:00:51;100851.00;;;5.84;100.00
15193;BME280;7697;51.630;7.484;2022-12-07T02:05:54;100847.41;;;5.85;100.00
15193;BME280;7697;51.630;7.484;2022-12-07T02:10:56;100850.84;;;5.86;100.00
15193;BME280;7697;51.630;7.484;2022-12-07T02:16:13;100843.13;;;5.84;100.00
15193;BME280;7697;51.630;7.484;2022-12-07T02:21:26;100840.84;;;5.81;100.00
15193;BME280;7697;51.630;7.484;2022-12-07T02:32:26;100843.78;;;5.78;100.00
15193;BME280;7697;51.630;7.484;2022-12-07T02:37:35;100838.84;;;5.75;100.00
15193;BME280;7697;51.630;7.484;2022-12-07T02:42:42;100844.25;;;5.74;100.00
15193;BME280;7697;51.630;7.484;2022-12-07T02:47:49;100845.56;;;5.70;100.00
15193;BME280;7697;51.630;7.484;2022-12-07T02:52:52;100849.34;;;5.67;100.00
15193;BME280;7697;51.630;7.484;2022-12-07T02:58:11;100840.44;;;5.60;100.00
15193;BME280;7697;51.630;7.484;2022-12-07T03:03:19;100836.00;;;5.52;100.00
15193;BME280;7697;51.630;7.484;2022-12-07T03:08:25;100840.91;;;5.47;100.00
15193;BME280;7697;51.630;7.484;2022-12-07T03:13:33;100842.69;;;5.39;100.00
15193;BME280;7697;51.630;7.484;2022-12-07T03:18:42;100843.31;;;5.33;100.00
15193;BME280;7697;51.630;7.484;2022-12-07T03:23:49;100840.38;;;5.27;100.00
15193;BME280;7697;51.630;7.484;2022-12-07T03:28:55;100841.78;;;5.22;100.00
15193;BME280;7697;51.630;7.484;2022-12-07T03:34:05;100839.97;;;5.14;100.00
15193;BME280;7697;51.630;7.484;2022-12-07T03:39:16;100832.34;;;5.03;100.00
15193;BME280;7697;51.630;7.484;2022-12-07T03:44:20;100831.66;;;4.93;100.00
15193;BME280;7697;51.630;7.484;2022-12-07T03:49:26;100826.72;;;4.90;100.00
15193;BME280;7697;51.630;7.484;2022-12-07T03:54:32;100837.19;;;4.82;100.00
15193;BME280;7697;51.630;7.484;2022-12-07T03:59:36;100833.50;;;4.75;100.00
15193;BME280;7697;51.630;7.484;2022-12-07T04:04:40;100837.94;;;4.74;100.00
15193;BME280;7697;51.630;7.484;2022-12-07T04:09:43;100821.56;;;4.72;100.00
15193;BME280;7697;51.630;7.484;2022-12-07T04:14:45;100836.63;;;4.70;100.00
15193;BME280;7697;51.630;7.484;2022-12-07T04:19:48;100826.94;;;4.71;100.00
15193;BME280;7697;51.630;7.484;2022-12-07T04:24:49;100820.34;;;4.67;100.00
15193;BME280;7697;51.630;7.484;2022-12-07T04:29:51;100813.78;;;4.63;100.00
15193;BME280;7697;51.630;7.484;2022-12-07T04:34:54;100819.63;;;4.57;100.00
15193;BME280;7697;51.630;7.484;2022-12-07T04:39:56;100828.81;;;4.52;100.00
15193;BME280;7697;51.630;7.484;2022-12-07T04:44:57;100827.81;;;4.53;100.00
15193;BME280;7697;51.630;7.484;2022-12-07T04:50:01;100824.09;;;4.56;100.00
15193;BME280;7697;51.630;7.484;2022-12-07T04:55:03;100822.25;;;4.57;100.00
15193;BME280;7697;51.630;7.484;2022-12-07T05:00:05;100822.25;;;4.57;100.00
15193;BME280;7697;51.630;7.484;2022-12-07T05:05:09;100814.72;;;4.53;100.00
15193;BME280;7697;51.630;7.484;2022-12-07T05:10:10;100819.00;;;4.55;100.00
15193;BME280;7697;51.630;7.484;2022-12-07T05:15:13;100819.28;;;4.51;100.00
15193;BME280;7697;51.630;7.484;2022-12-07T05:20:16;100820.56;;;4.47;100.00
15193;BME280;7697;51.630;7.484;2022-12-07T05:25:18;100811.22;;;4.45;100.00
15193;BME280;7697;51.630;7.484;2022-12-07T05:30:20;100819.22;;;4.43;100.00
15193;BME280;7697;51.630;7.484;2022-12-07T05:35:23;100813.47;;;4.40;100.00
15193;BME280;7697;51.630;7.484;2022-12-07T05:40:24;100817.22;;;4.37;100.00
15193;BME280;7697;51.630;7.484;2022-12-07T05:45:26;100818.50;;;4.33;100.00
15193;BME280;7697;51.630;7.484;2022-12-07T05:50:29;100817.06;;;4.39;100.00
15193;BME280;7697;51.630;7.484;2022-12-07T05:55:31;100811.03;;;4.38;100.00
15193;BME280;7697;51.630;7.484;2022-12-07T06:00:32;100819.53;;;4.40;100.00
15193;BME280;7697;51.630;7.484;2022-12-07T06:05:35;100814.97;;;4.42;100.00
15193;BME280;7697;51.630;7.484;2022-12-07T06:10:37;100796.91;;;4.39;100.00
15193;BME280;7697;51.630;7.484;2022-12-07T06:15:39;100810.19;;;4.38;100.00
15193;BME280;7697;51.630;7.484;2022-12-07T06:20:42;100809.50;;;4.36;100.00
15193;BME280;7697;51.630;7.484;2022-12-07T06:25:45;100814.63;;;4.37;100.00
15193;BME280;7697;51.630;7.484;2022-12-07T06:30:46;100807.72;;;4.36;100.00
15193;BME280;7697;51.630;7.484;2022-12-07T06:35:49;100812.00;;;4.37;100.00
15193;BME280;7697;51.630;7.484;2022-12-07T06:40:51;100820.69;;;4.38;100.00
15193;BME280;7697;51.630;7.484;2022-12-07T06:45:53;100826.75;;;4.38;100.00
15193;BME280;7697;51.630;7.484;2022-12-07T06:50:56;100832.13;;;4.37;100.00
15193;BME280;7697;51.630;7.484;2022-12-07T06:55:57;100828.16;;;4.33;100.00
15193;BME280;7697;51.630;7.484;2022-12-07T07:00:59;100824.72;;;4.32;100.00
15193;BME280;7697;51.630;7.484;2022-12-07T07:06:02;100827.66;;;4.29;100.00
15193;BME280;7697;51.630;7.484;2022-12-07T07:11:04;100831.56;;;4.25;100.00
15193;BME280;7697;51.630;7.484;2022-12-07T07:16:07;100821.06;;;4.25;100.00
15193;BME280;7697;51.630;7.484;2022-12-07T07:21:10;100835.13;;;4.24;100.00
15193;BME280;7697;51.630;7.484;2022-12-07T07:26:12;100824.13;;;4.21;100.00
15193;BME280;7697;51.630;7.484;2022-12-07T07:31:14;100835.06;;;4.16;100.00
15193;BME280;7697;51.630;7.484;2022-12-07T07:36:17;100849.84;;;4.17;100.00
15193;BME280;7697;51.630;7.484;2022-12-07T07:41:18;100842.78;;;4.18;100.00
15193;BME280;7697;51.630;7.484;2022-12-07T07:46:20;100851.63;;;4.17;100.00
15193;BME280;7697;51.630;7.484;2022-12-07T07:51:23;100849.84;;;4.17;100.00
15193;BME280;7697;51.630;7.484;2022-12-07T07:56:25;100845.28;;;4.19;100.00
15193;BME280;7697;51.630;7.484;2022-12-07T08:01:27;100847.56;;;4.22;100.00
15193;BME280;7697;51.630;7.484;2022-12-07T08:06:30;100854.47;;;4.23;100.00
15193;BME280;7697;51.630;7.484;2022-12-07T08:11:31;100852.44;;;4.17;100.00
15193;BME280;7697;51.630;7.484;2022-12-07T08:16:33;100850.81;;;4.16;100.00
15193;BME280;7697;51.630;7.484;2022-12-07T08:21:37;100849.53;;;4.20;100.00
15193;BME280;7697;51.630;7.484;2022-12-07T08:26:39;100860.66;;;4.22;100.00
15193;BME280;7697;51.630;7.484;2022-12-07T08:31:41;100863.53;;;4.29;100.00
15193;BME280;7697;51.630;7.484;2022-12-07T08:36:44;100877.81;;;4.34;100.00
15193;BME280;7697;51.630;7.484;2022-12-07T08:41:46;100868.53;;;4.40;100.00
15193;BME280;7697;51.630;7.484;2022-12-07T08:46:50;100865.59;;;4.43;100.00
15193;BME280;7697;51.630;7.484;2022-12-07T08:51:55;100859.09;;;4.47;100.00
15193;BME280;7697;51.630;7.484;2022-12-07T08:56:56;100867.47;;;4.50;100.00
15193;BME280;7697;51.630;7.484;2022-12-07T09:01:58;100856.66;;;4.53;100.00
15193;BME280;7697;51.630;7.484;2022-12-07T09:07:01;100856.66;;;4.53;100.00
15193;BME280;7697;51.630;7.484;2022-12-07T09:12:04;100856.00;;;4.51;100.00
15193;BME280;7697;51.630;7.484;2022-12-07T09:17:07;100855.84;;;4.53;100.00
15193;BME280;7697;51.630;7.484;2022-12-07T09:22:10;100864.59;;;4.62;100.00
15193;BME280;7697;51.630;7.484;2022-12-07T09:27:12;100860.06;;;4.72;100.00
15193;BME280;7697;51.630;7.484;2022-12-07T09:32:14;100863.66;;;4.97;100.00
15193;BME280;7697;51.630;7.484;2022-12-07T09:37:17;100864.88;;;5.10;100.00
15193;BME280;7697;51.630;7.484;2022-12-07T09:42:26;100854.91;;;5.22;100.00
15193;BME280;7697;51.630;7.484;2022-12-07T09:47:29;100863.03;;;5.37;100.00
15193;BME280;7697;51.630;7.484;2022-12-07T09:52:32;100857.34;;;5.57;100.00
15193;BME280;7697;51.630;7.484;2022-12-07T09:57:34;100857.38;;;5.74;100.00
15193;BME280;7697;51.630;7.484;2022-12-07T10:02:38;100852.38;;;6.05;100.00
15193;BME280;7697;51.630;7.484;2022-12-07T10:07:43;100844.66;;;6.11;100.00
15193;BME280;7697;51.630;7.484;2022-12-07T10:12:54;100845.16;;;6.07;100.00
15193;BME280;7697;51.630;7.484;2022-12-07T10:17:56;100843.38;;;6.15;100.00
15193;BME280;7697;51.630;7.484;2022-12-07T10:23:04;100839.75;;;6.32;100.00
15193;BME280;7697;51.630;7.484;2022-12-07T10:28:13;100830.72;;;6.35;100.00
15193;BME280;7697;51.630;7.484;2022-12-07T10:33:28;100830.03;;;6.41;100.00
15193;BME280;7697;51.630;7.484;2022-12-07T10:38:37;100826.56;;;6.49;100.00
15193;BME280;7697;51.630;7.484;2022-12-07T10:43:52;100817.88;;;6.48;100.00
15193;BME280;7697;51.630;7.484;2022-12-07T10:49:00;100815.22;;;6.48;100.00
15193;BME280;7697;51.630;7.484;2022-12-07T10:54:12;100801.28;;;6.39;100.00
15193;BME280;7697;51.630;7.484;2022-12-07T10:59:28;100802.09;;;6.32;100.00
15193;BME280;7697;51.630;7.484;2022-12-07T11:04:43;100801.13;;;6.33;100.00
15193;BME280;7697;51.630;7.484;2022-12-07T11:10:02;100794.69;;;6.35;100.00
15193;BME280;7697;51.630;7.484;2022-12-07T11:15:13;100799.47;;;6.40;100.00
15193;BME280;7697;51.630;7.484;2022-12-07T11:20:34;100792.22;;;6.50;100.00
15193;BME280;7697;51.630;7.484;2022-12-07T11:25:46;100789.44;;;6.52;100.00
15193;BME280;7697;51.630;7.484;2022-12-07T11:30:57;100793.03;;;6.51;100.00
15193;BME280;7697;51.630;7.484;2022-12-07T11:36:11;100785.78;;;6.61;100.00
15193;BME280;7697;51.630;7.484;2022-12-07T11:41:23;100790.38;;;6.59;100.00
15193;BME280;7697;51.630;7.484;2022-12-07T11:46:31;100779.38;;;6.55;100.00
15193;BME280;7697;51.630;7.484;2022-12-07T11:51:38;100765.22;;;6.64;100.00
15193;BME280;7697;51.630;7.484;2022-12-07T11:56:43;100765.84;;;6.74;100.00
15193;BME280;7697;51.630;7.484;2022-12-07T12:01:52;100759.38;;;6.85;100.00
15193;BME280;7697;51.630;7.484;2022-12-07T12:06:54;100757.41;;;6.87;100.00
15193;BME280;7697;51.630;7.484;2022-12-07T12:12:12;100758.22;;;6.88;100.00
15193;BME280;7697;51.630;7.484;2022-12-07T12:17:27;100760.03;;;6.87;100.00
15193;BME280;7697;51.630;7.484;2022-12-07T12:22:39;100760.88;;;6.88;100.00
15193;BME280;7697;51.630;7.484;2022-12-07T12:27:45;100753.31;;;6.85;99.93
15193;BME280;7697;51.630;7.484;2022-12-07T12:32:48;100743.59;;;6.85;100.00
15193;BME280;7697;51.630;7.484;2022-12-07T12:37:51;100735.16;;;6.90;99.30
15193;BME280;7697;51.630;7.484;2022-12-07T12:42:57;100736.34;;;6.87;99.63
15193;BME280;7697;51.630;7.484;2022-12-07T12:47:59;100735.38;;;6.88;99.65
15193;BME280;7697;51.630;7.484;2022-12-07T12:53:21;100715.75;;;6.91;99.39
15193;BME280;7697;51.630;7.484;2022-12-07T12:58:46;100708.84;;;6.90;98.98
15193;BME280;7697;51.630;7.484;2022-12-07T13:03:52;100723.81;;;6.89;99.77
15193;BME280;7697;51.630;7.484;2022-12-07T13:08:56;100715.13;;;6.89;99.62
15193;BME280;7697;51.630;7.484;2022-12-07T13:20:00;100711.19;;;6.85;98.88
15193;BME280;7697;51.630;7.484;2022-12-07T13:25:07;100709.88;;;6.81;98.81
15193;BME280;7697;51.630;7.484;2022-12-07T13:30:14;100697.72;;;6.80;99.15
15193;BME280;7697;51.630;7.484;2022-12-07T13:35:35;100681.47;;;6.76;98.28
15193;BME280;7697;51.630;7.484;2022-12-07T13:40:38;100688.84;;;6.72;99.11
15193;BME280;7697;51.630;7.484;2022-12-07T13:45:41;100690.66;;;6.72;98.62
15193;BME280;7697;51.630;7.484;2022-12-07T13:50:57;100682.47;;;6.67;98.86
15193;BME280;7697;51.630;7.484;2022-12-07T13:56:00;100680.34;;;6.62;98.73
15193;BME280;7697;51.630;7.484;2022-12-07T14:01:02;100674.78;;;6.57;98.93
15193;BME280;7697;51.630;7.484;2022-12-07T14:06:19;100672.19;;;6.49;98.40
15193;BME280;7697;51.630;7.484;2022-12-07T14:11:22;100674.34;;;6.46;99.04
15193;BME280;7697;51.630;7.484;2022-12-07T14:16:26;100667.91;;;6.48;99.76
15193;BME280;7697;51.630;7.484;2022-12-07T14:21:31;100658.50;;;6.54;99.16
15193;BME280;7697;51.630;7.484;2022-12-07T14:26:33;100655.06;;;6.53;99.70
15193;BME280;7697;51.630;7.484;2022-12-07T14:31:35;100654.13;;;6.46;99.72
15193;BME280;7697;51.630;7.484;2022-12-07T14:36:38;100655.63;;;6.40;99.41
15193;BME280;7697;51.630;7.484;2022-12-07T14:41:40;100653.31;;;6.37;98.91
15193;BME280;7697;51.630;7.484;2022-12-07T14:46:53;100644.97;;;6.34;98.79
15193;BME280;7697;51.630;7.484;2022-12-07T14:51:58;100640.03;;;6.31;98.84
15193;BME280;7697;51.630;7.484;2022-12-07T14:56:59;100625.28;;;6.22;99.58
15193;BME280;7697;51.630;7.484;2022-12-07T15:02:01;100625.47;;;6.12;99.18
15193;BME280;7697;51.630;7.484;2022-12-07T15:07:05;100630.09;;;6.02;99.29
15193;BME280;7697;51.630;7.484;2022-12-07T15:12:07;100625.69;;;5.94;98.91
15193;BME280;7697;51.630;7.484;2022-12-07T15:17:10;100628.84;;;5.90;99.56
15193;BME280;7697;51.630;7.484;2022-12-07T15:22:14;100626.38;;;5.88;99.24
15193;BME280;7697;51.630;7.484;2022-12-07T15:27:16;100616.47;;;5.82;99.50
15193;BME280;7697;51.630;7.484;2022-12-07T15:32:18;100621.13;;;5.72;99.29
15193;BME280;7697;51.630;7.484;2022-12-07T15:37:21;100616.50;;;5.66;99.23
15193;BME280;7697;51.630;7.484;2022-12-07T15:42:22;100616.34;;;5.59;99.73
15193;BME280;7697;51.630;7.484;2022-12-07T15:47:24;100614.56;;;5.52;99.65
15193;BME280;7697;51.630;7.484;2022-12-07T15:52:28;100605.34;;;5.48;100.00
15193;BME280;7697;51.630;7.484;2022-12-07T15:57:30;100605.06;;;5.43;100.00
15193;BME280;7697;51.630;7.484;2022-12-07T16:02:31;100608.81;;;5.40;100.00
15193;BME280;7697;51.630;7.484;2022-12-07T16:07:34;100607.19;;;5.39;100.00
15193;BME280;7697;51.630;7.484;2022-12-07T16:12:36;100599.81;;;5.35;100.00
15193;BME280;7697;51.630;7.484;2022-12-07T16:17:38;100605.22;;;5.33;100.00
15193;BME280;7697;51.630;7.484;2022-12-07T16:22:41;100601.91;;;5.39;100.00
15193;BME280;7697;51.630;7.484;2022-12-07T16:27:42;100597.50;;;5.40;100.00
15193;BME280;7697;51.630;7.484;2022-12-07T16:32:44;100590.94;;;5.36;100.00
15193;BME280;7697;51.630;7.484;2022-12-07T16:37:47;100588.31;;;5.36;100.00
15193;BME280;7697;51.630;7.484;2022-12-07T16:42:49;100586.69;;;5.35;100.00
15193;BME280;7697;51.630;7.484;2022-12-07T16:47:50;100579.47;;;5.37;100.00
15193;BME280;7697;51.630;7.484;2022-12-07T16:52:54;100576.00;;;5.36;100.00
15193;BME280;7697;51.630;7.484;2022-12-07T16:57:55;100569.13;;;5.35;100.00
15193;BME280;7697;51.630;7.484;2022-12-07T17:02:58;100564.50;;;5.37;100.00
15193;BME280;7697;51.630;7.484;2022-12-07T17:08:01;100555.47;;;5.40;100.00
15193;BME280;7697;51.630;7.484;2022-12-07T17:13:03;100553.84;;;5.39;100.00
15193;BME280;7697;51.630;7.484;2022-12-07T17:18:27;100545.78;;;5.40;100.00
15193;BME280;7697;51.630;7.484;2022-12-07T17:23:31;100540.38;;;5.42;100.00
15193;BME280;7697;51.630;7.484;2022-12-07T17:28:34;100539.41;;;5.43;100.00
15193;BME280;7697;51.630;7.484;2022-12-07T17:33:36;100537.75;;;5.42;100.00
15193;BME280;7697;51.630;7.484;2022-12-07T17:38:40;100539.41;;;5.43;100.00
15193;BME280;7697;51.630;7.484;2022-12-07T17:43:42;100540.38;;;5.42;100.00
15193;BME280;7697;51.630;7.484;2022-12-07T17:48:43;100534.16;;;5.43;100.00
15193;BME280;7697;51.630;7.484;2022-12-07T17:53:49;100544.50;;;5.44;100.00
15193;BME280;7697;51.630;7.484;2022-12-07T17:58:51;100546.47;;;5.42;100.00
15193;BME280;7697;51.630;7.484;2022-12-07T18:03:52;100535.94;;;5.42;100.00
15193;BME280;7697;51.630;7.484;2022-12-07T18:08:56;100539.25;;;5.44;100.00
15193;BME280;7697;51.630;7.484;2022-12-07T18:13:59;100527.75;;;5.45;100.00
15193;BME280;7697;51.630;7.484;2022-12-07T18:19:01;100527.75;;;5.45;100.00
15193;BME280;7697;51.630;7.484;2022-12-07T18:24:06;100523.47;;;5.44;100.00
15193;BME280;7697;51.630;7.484;2022-12-07T18:29:12;100517.56;;;5.42;100.00
15193;BME280;7697;51.630;7.484;2022-12-07T18:34:16;100518.56;;;5.41;100.00
15193;BME280;7697;51.630;7.484;2022-12-07T18:39:19;100524.47;;;5.43;100.00
15193;BME280;7697;51.630;7.484;2022-12-07T18:44:21;100505.44;;;5.41;100.00
15193;BME280;7697;51.630;7.484;2022-12-07T18:49:23;100504.94;;;5.38;100.00
15193;BME280;7697;51.630;7.484;2022-12-07T18:54:26;100505.13;;;5.36;100.00
15193;BME280;7697;51.630;7.484;2022-12-07T18:59:27;100497.88;;;5.38;100.00
15193;BME280;7697;51.630;7.484;2022-12-07T19:04:48;100496.88;;;5.39;100.00
15193;BME280;7697;51.630;7.484;2022-12-07T19:09:51;100493.59;;;5.37;100.00
15193;BME280;7697;51.630;7.484;2022-12-07T19:14:53;100496.44;;;5.36;100.00
15193;BME280;7697;51.630;7.484;2022-12-07T19:19:55;100491.50;;;5.33;100.00
15193;BME280;7697;51.630;7.484;2022-12-07T19:24:58;100489.53;;;5.35;100.00
15193;BME280;7697;51.630;7.484;2022-12-07T19:30:00;100499.53;;;5.31;100.00
15193;BME280;7697;51.630;7.484;2022-12-07T19:35:02;100485.94;;;5.27;100.00
15193;BME280;7697;51.630;7.484;2022-12-07T19:40:07;100478.06;;;5.27;100.00
15193;BME280;7697;51.630;7.484;2022-12-07T19:45:09;100479.69;;;5.28;100.00
15193;BME280;7697;51.630;7.484;2022-12-07T19:50:11;100466.91;;;5.25;100.00
15193;BME280;7697;51.630;7.484;2022-12-07T19:55:14;100476.41;;;5.26;100.00
15193;BME280;7697;51.630;7.484;2022-12-07T20:00:16;100463.47;;;5.25;100.00
15193;BME280;7697;51.630;7.484;2022-12-07T20:05:18;100460.66;;;5.26;100.00
15193;BME280;7697;51.630;7.484;2022-12-07T20:10:22;100457.38;;;5.24;100.00
15193;BME280;7697;51.630;7.484;2022-12-07T20:15:24;100462.97;;;5.21;100.00
15193;BME280;7697;51.630;7.484;2022-12-07T20:20:26;100458.88;;;5.19;100.00
15193;BME280;7697;51.630;7.484;2022-12-07T20:25:29;100453.13;;;5.15;100.00
15193;BME280;7697;51.630;7.484;2022-12-07T20:30:30;100451.81;;;5.11;100.00
15193;BME280;7697;51.630;7.484;2022-12-07T20:35:32;100431.50;;;5.05;100.00
15193;BME280;7697;51.630;7.484;2022-12-07T20:40:35;100430.84;;;5.03;100.00
15193;BME280;7697;51.630;7.484;2022-12-07T20:45:42;100421.53;;;5.01;100.00
15193;BME280;7697;51.630;7.484;2022-12-07T20:50:45;100413.16;;;4.97;100.00
15193;BME280;7697;51.630;7.484;2022-12-07T20:55:48;100410.53;;;4.97;100.00
15193;BME280;7697;51.630;7.484;2022-12-07T21:00:49;100399.38;;;4.95;100.00
15193;BME280;7697;51.630;7.484;2022-12-07T21:05:51;100400.34;;;4.94;100.00
15193;BME280;7697;51.630;7.484;2022-12-07T21:10:54;100396.09;;;4.93;100.00
15193;BME280;7697;51.630;7.484;2022-12-07T21:15:56;100394.47;;;4.92;100.00
15193;BME280;7697;51.630;7.484;2022-12-07T21:21:00;100385.59;;;4.93;100.00
15193;BME280;7697;51.630;7.484;2022-12-07T21:26:08;100385.44;;;4.95;100.00
15193;BME280;7697;51.630;7.484;2022-12-07T21:31:10;100385.59;;;4.93;100.00
15193;BME280;7697;51.630;7.484;2022-12-07T21:36:14;100407.41;;;4.94;100.00
15193;BME280;7697;51.630;7.484;2022-12-07T21:41:19;100400.72;;;4.91;100.00
15193;BME280;7697;51.630;7.484;2022-12-07T21:46:23;100392.19;;;4.89;100.00
15193;BME280;7697;51.630;7.484;2022-12-07T21:51:25;100380.06;;;4.88;100.00
15193;BME280;7697;51.630;7.484;2022-12-07T21:56:30;100373.81;;;4.89;100.00
15193;BME280;7697;51.630;7.484;2022-12-07T22:01:34;100372.03;;;4.89;100.00
15193;BME280;7697;51.630;7.484;2022-12-07T22:06:37;100364.81;;;4.92;100.00
15193;BME280;7697;51.630;7.484;2022-12-07T22:11:40;100363.00;;;4.92;100.00
15193;BME280;7697;51.630;7.484;2022-12-07T22:16:42;100369.03;;;4.93;100.00
15193;BME280;7697;51.630;7.484;2022-12-07T22:21:44;100372.97;;;4.97;100.00
15193;BME280;7697;51.630;7.484;2022-12-07T22:26:47;100374.63;;;4.98;100.00
15193;BME280;7697;51.630;7.484;2022-12-07T22:31:48;100365.94;;;4.97;100.00
15193;BME280;7697;51.630;7.484;2022-12-07T22:36:50;100372.66;;;5.00;100.00
15193;BME280;7697;51.630;7.484;2022-12-07T22:41:53;100353.94;;;5.03;100.00
15193;BME280;7697;51.630;7.484;2022-12-07T22:46:55;100341.78;;;5.02;100.00
15193;BME280;7697;51.630;7.484;2022-12-07T22:51:56;100332.13;;;5.02;100.00
15193;BME280;7697;51.630;7.484;2022-12-07T22:57:00;100332.13;;;5.02;100.00
15193;BME280;7697;51.630;7.484;2022-12-07T23:02:01;100326.69;;;5.04;100.00
15193;BME280;7697;51.630;7.484;2022-12-07T23:07:03;100308.50;;;5.02;100.00
15193;BME280;7697;51.630;7.484;2022-12-07T23:12:06;100309.16;;;5.04;100.00
15193;BME280;7697;51.630;7.484;2022-12-07T23:17:25;100309.47;;;5.01;100.00
15193;BME280;7697;51.630;7.484;2022-12-07T23:22:27;100305.06;;;5.02;100.00
15193;BME280;7697;51.630;7.484;2022-12-07T23:27:30;100298.53;;;4.98;100.00
15193;BME280;7697;51.630;7.484;2022-12-07T23:32:31;100294.56;;;5.02;100.00
15193;BME280;7697;51.630;7.484;2022-12-07T23:37:33;100288.84;;;4.98;100.00
15193;BME280;7697;51.630;7.484;2022-12-07T23:42:36;100278.69;;;4.95;100.00
15193;BME280;7697;51.630;7.484;2022-12-07T23:47:38;100281.47;;;4.94;100.00
15193;BME280;7697;51.630;7.484;2022-12-07T23:52:39;100272.97;;;4.92;100.00
15193;BME280;7697;51.630;7.484;2022-12-07T23:57:42;100269.53;;;4.91;100.00
